Time;durP1;ratioP1;P1;durP2;ratioP2;P2;SDS_P1;SDS_P2;PMS_P1;PMS_P2;Temp;Humidity;BMP_temperature;BMP_pressure;BME280_temperature;BME280_humidity;BME280_pressure;Samples;Min_cycle;Max_cycle;Signal;HPM_P1;HPM_P2
2021/07/19 00:00:34;;;;;;;23.95;16.95;;;;;;;24.46;73.60;99915.15;1720798;81;21205;-60
2021/07/19 00:03:40;;;;;;;23.07;16.12;;;;;;;24.40;73.70;99912.62;1724773;82;21797;-58
2021/07/19 00:06:46;;;;;;;32.08;17.37;;;;;;;24.35;73.97;99912.60;1719605;83;21778;-59
2021/07/19 00:09:51;;;;;;;21.57;16.80;;;;;;;24.30;74.24;99911.19;1728961;82;21348;-57
2021/07/19 00:12:57;;;;;;;21.42;16.80;;;;;;;24.27;74.30;99915.39;1728385;82;21285;-57
2021/07/19 00:16:03;;;;;;;26.87;17.65;;;;;;;24.25;74.44;99914.82;1732644;81;21409;-59
2021/07/19 00:19:08;;;;;;;21.35;16.25;;;;;;;24.21;74.50;99913.70;1733668;81;21237;-59
2021/07/19 00:22:14;;;;;;;24.27;16.57;;;;;;;24.18;74.56;99909.22;1737489;81;21197;-59
2021/07/19 00:25:20;;;;;;;21.73;16.27;;;;;;;24.12;74.80;99904.73;1798818;79;21199;-58
2021/07/19 00:28:26;;;;;;;20.65;15.72;;;;;;;24.08;74.86;99909.17;1798740;80;21232;-58
2021/07/19 00:31:32;;;;;;;23.83;15.48;;;;;;;24.05;74.92;99913.92;1798460;79;21299;-57
2021/07/19 00:34:37;;;;;;;22.62;15.80;;;;;;;24.04;75.00;99924.26;1798872;79;21247;-58
2021/07/19 00:37:43;;;;;;;20.17;15.30;;;;;;;24.00;74.95;99913.35;1798507;80;21149;-57
2021/07/19 00:40:48;;;;;;;20.92;14.68;;;;;;;23.98;74.90;99912.78;1798470;80;21239;-58
2021/07/19 00:43:52;;;;;;;24.25;14.58;;;;;;;23.97;74.94;99912.51;1798548;80;21212;-57
2021/07/19 00:47:02;;;;;;;20.92;14.65;;;;;;;23.94;75.03;99910.23;1799234;79;21322;-59
2021/07/19 00:50:08;;;;;;;21.90;15.10;;;;;;;23.93;75.21;99919.72;1799339;79;21389;-59
2021/07/19 00:53:16;;;;;;;22.58;15.13;;;;;;;23.89;75.24;99911.61;1799046;80;21200;-57
2021/07/19 00:56:23;;;;;;;23.98;14.93;;;;;;;23.87;75.21;99915.22;1798998;79;21220;-59
2021/07/19 00:59:31;;;;;;;20.50;15.80;;;;;;;23.80;75.21;99918.81;1777290;80;21247;-59
2021/07/19 01:02:37;;;;;;;18.37;15.05;;;;;;;23.76;75.49;99914.05;1799130;79;21184;-59
2021/07/19 01:05:46;;;;;;;18.90;15.25;;;;;;;23.74;75.59;99917.70;1798928;80;21200;-59
2021/07/19 01:08:52;;;;;;;24.32;15.50;;;;;;;23.68;75.76;99922.95;1798782;80;21354;-59
2021/07/19 01:11:59;;;;;;;21.35;14.65;;;;;;;23.66;75.97;99928.00;1798849;80;21192;-59
2021/07/19 01:15:05;;;;;;;17.25;15.08;;;;;;;23.64;76.14;99931.06;1780495;80;21812;-59
2021/07/19 01:18:12;;;;;;;20.17;15.32;;;;;;;23.59;76.11;99926.84;1798794;80;21208;-58
2021/07/19 01:21:46;;;;;;;21.97;15.58;;;;;;;23.53;76.26;99930.16;1799085;79;21653;-59
2021/07/19 01:25:22;;;;;;;19.62;14.30;;;;;;;23.49;76.49;99927.63;1797501;79;21377;-57
2021/07/19 01:28:45;;;;;;;22.73;14.65;;;;;;;23.44;76.78;99930.94;1798854;79;21189;-58
2021/07/19 01:31:52;;;;;;;19.50;15.65;;;;;;;23.40;77.27;99927.84;1799124;79;21168;-58
2021/07/19 01:34:57;;;;;;;21.00;14.60;;;;;;;23.38;77.50;99930.63;1798968;79;21192;-58
2021/07/19 01:38:03;;;;;;;23.75;15.60;;;;;;;23.38;77.65;99932.02;1799122;79;21362;-57
2021/07/19 01:41:09;;;;;;;22.52;15.85;;;;;;;23.36;77.74;99932.30;1798901;79;21307;-58
2021/07/19 01:44:15;;;;;;;22.37;15.75;;;;;;;23.37;77.92;99933.97;1799033;79;21195;-59
2021/07/19 01:47:25;;;;;;;18.48;15.00;;;;;;;23.39;77.93;99935.94;1799108;79;21283;-59
2021/07/19 01:50:30;;;;;;;22.32;15.55;;;;;;;23.40;77.87;99936.22;1798977;79;21392;-59
2021/07/19 01:53:42;;;;;;;25.95;15.08;;;;;;;23.39;77.85;99935.94;1799374;79;21215;-59
2021/07/19 01:56:52;;;;;;;27.85;17.20;;;;;;;23.39;77.78;99942.08;1799752;79;21181;-59
2021/07/19 02:00:00;;;;;;;21.17;15.58;;;;;;;23.34;77.71;99931.71;1798924;79;21243;-60
2021/07/19 02:03:08;;;;;;;21.70;14.75;;;;;;;23.32;77.82;99938.70;1798070;79;21279;-59
2021/07/19 02:06:16;;;;;;;17.82;14.47;;;;;;;23.31;77.93;99936.98;1799238;79;21200;-59
2021/07/19 02:09:24;;;;;;;26.65;15.60;;;;;;;23.28;77.83;99940.33;1782949;79;21394;-60
2021/07/19 02:12:48;;;;;;;20.60;15.23;;;;;;;23.25;77.86;99936.65;1765678;81;21220;-59
2021/07/19 02:16:00;;;;;;;21.75;15.28;;;;;;;23.24;77.82;99947.55;1798503;80;21702;-57
2021/07/19 02:19:07;;;;;;;21.48;15.43;;;;;;;23.22;77.86;99952.00;1799018;79;21216;-59
2021/07/19 02:22:15;;;;;;;20.37;16.00;;;;;;;23.21;77.86;99954.49;1798755;79;21185;-58
2021/07/19 02:25:23;;;;;;;22.35;16.30;;;;;;;23.18;77.80;99957.00;1797699;79;21275;-59
2021/07/19 02:28:31;;;;;;;26.02;16.45;;;;;;;23.15;77.95;99960.34;1779899;80;21342;-59
2021/07/19 02:31:36;;;;;;;21.23;16.37;;;;;;;23.12;78.23;99956.69;1799037;79;21224;-58
2021/07/19 02:34:42;;;;;;;25.23;16.60;;;;;;;23.14;78.41;99958.62;1798826;80;21203;-59
2021/07/19 02:37:49;;;;;;;19.02;14.95;;;;;;;23.16;78.51;99953.63;1781247;80;21373;-57
2021/07/19 02:40:58;;;;;;;25.32;16.62;;;;;;;23.18;78.69;99959.80;1793125;80;21330;-58
2021/07/19 02:44:06;;;;;;;23.55;16.75;;;;;;;23.22;78.61;99948.36;1798586;80;21351;-59
2021/07/19 02:47:28;;;;;;;21.62;15.68;;;;;;;23.29;78.39;99951.23;1798852;79;21756;-58
2021/07/19 02:50:34;;;;;;;23.12;15.75;;;;;;;23.34;78.19;99949.05;1798934;79;21223;-59
2021/07/19 02:53:40;;;;;;;17.65;15.40;;;;;;;23.39;78.04;99952.70;1777111;80;21737;-59
2021/07/19 02:56:46;;;;;;;25.15;16.50;;;;;;;23.45;77.87;99943.81;1799141;79;21311;-59
2021/07/19 02:59:51;;;;;;;27.42;16.35;;;;;;;23.51;77.68;99948.31;1798778;80;21875;-59
2021/07/19 03:03:02;;;;;;;21.50;16.25;;;;;;;23.56;77.52;99948.35;1798496;80;21622;-57
2021/07/19 03:06:16;;;;;;;28.52;16.67;;;;;;;23.63;77.46;99955.92;1798659;79;21771;-58
2021/07/19 03:09:28;;;;;;;23.92;16.67;;;;;;;23.70;77.27;99955.13;1799555;79;21836;-59
2021/07/19 03:12:33;;;;;;;23.95;16.35;;;;;;;23.78;76.94;99962.15;1798688;80;21326;-58
2021/07/19 03:15:41;;;;;;;25.37;16.12;;;;;;;23.84;76.76;99961.05;1798862;80;21416;-57
2021/07/19 03:18:47;;;;;;;25.60;15.80;;;;;;;23.92;76.71;99954.94;1798718;80;21216;-58
2021/07/19 03:21:53;;;;;;;24.95;15.13;;;;;;;23.93;76.49;99953.27;1798815;80;21350;-58
2021/07/19 03:25:06;;;;;;;23.20;15.68;;;;;;;23.98;76.52;99960.87;1801117;79;21355;-57
2021/07/19 03:28:11;;;;;;;22.35;14.98;;;;;;;24.01;76.24;99958.38;1797762;79;21335;-58
2021/07/19 03:31:16;;;;;;;22.32;15.38;;;;;;;24.06;76.20;99952.80;1798780;79;21295;-59
2021/07/19 03:34:21;;;;;;;26.75;15.23;;;;;;;24.11;75.94;99964.56;1796521;79;21193;-59
2021/07/19 03:37:28;;;;;;;26.75;16.57;;;;;;;24.18;75.86;99967.96;1771460;80;21363;-58
2021/07/19 03:40:34;;;;;;;19.65;14.70;;;;;;;24.25;75.57;99968.52;1770084;80;21192;-59
2021/07/19 03:43:40;;;;;;;21.62;15.25;;;;;;;24.32;75.27;99964.38;1770811;80;21856;-59
2021/07/19 03:46:50;;;;;;;19.15;15.00;;;;;;;24.39;75.00;99971.93;1770440;81;21216;-59
2021/07/19 03:49:57;;;;;;;19.10;14.55;;;;;;;24.46;74.95;99973.92;1770278;80;21284;-58
2021/07/19 03:53:08;;;;;;;22.65;15.68;;;;;;;24.53;74.75;99973.08;1771220;80;21217;-60
2021/07/19 03:56:17;;;;;;;21.77;15.15;;;;;;;24.59;74.66;99966.37;1770866;80;21308;-58
2021/07/19 03:59:28;;;;;;;24.25;16.05;;;;;;;24.67;74.58;99969.23;1770538;81;21224;-59
2021/07/19 04:02:34;;;;;;;21.23;15.45;;;;;;;24.73;74.54;99970.92;1770347;80;21213;-56
2021/07/19 04:05:44;;;;;;;23.35;15.60;;;;;;;24.80;74.37;99972.91;1770783;81;21208;-59
2021/07/19 04:08:52;;;;;;;22.02;15.50;;;;;;;24.84;74.26;99973.45;1770729;80;21268;-58
2021/07/19 04:11:59;;;;;;;22.77;16.10;;;;;;;24.93;74.31;99975.98;1771101;80;21189;-58
2021/07/19 04:15:06;;;;;;;21.17;16.45;;;;;;;25.00;74.23;99978.50;1760214;81;21779;-57
2021/07/19 04:18:14;;;;;;;20.55;15.95;;;;;;;25.04;73.96;99977.66;1762513;80;21249;-57
2021/07/19 04:21:23;;;;;;;25.68;15.95;;;;;;;25.10;73.78;99977.67;1770779;80;21243;-57
2021/07/19 04:24:28;;;;;;;22.00;17.10;;;;;;;25.15;73.40;99977.67;1770838;80;21611;-57
2021/07/19 04:27:35;;;;;;;20.92;17.75;;;;;;;25.20;73.07;99980.47;1769839;80;21819;-57
2021/07/19 04:30:42;;;;;;;29.32;17.52;;;;;;;25.24;73.09;99978.78;1771306;80;21224;-57
2021/07/19 04:33:51;;;;;;;29.42;16.65;;;;;;;25.29;72.87;99982.98;1771071;81;21287;-58
2021/07/19 04:37:01;;;;;;;27.43;18.00;;;;;;;25.42;73.14;99988.88;1771347;80;21169;-58
2021/07/19 04:40:13;;;;;;;38.08;23.73;;;;;;;25.42;73.14;99988.88;1770673;81;21741;-59
2021/07/19 04:43:17;;;;;;;34.27;22.93;;;;;;;25.53;72.90;99979.91;1777135;79;21315;-58
2021/07/19 04:46:24;;;;;;;39.13;25.08;;;;;;;25.64;72.90;99987.17;1802238;79;21860;-58
2021/07/19 04:49:29;;;;;;;32.05;22.40;;;;;;;25.71;72.55;99987.70;1784367;79;21227;-57
2021/07/19 04:52:37;;;;;;;29.63;20.00;;;;;;;25.77;72.40;99988.80;1770876;81;21727;-57
2021/07/19 04:55:44;;;;;;;32.78;20.32;;;;;;;25.84;72.16;99986.55;1771353;80;21250;-58
2021/07/19 04:58:49;;;;;;;24.27;18.98;;;;;;;25.90;72.04;99979.80;1795104;79;21338;-60
2021/07/19 05:02:00;;;;;;;28.70;19.23;;;;;;;26.00;72.17;99986.82;1801960;79;21347;-59
2021/07/19 05:05:06;;;;;;;25.85;17.23;;;;;;;26.09;71.95;99985.09;1801975;79;21391;-58
2021/07/19 05:08:14;;;;;;;29.00;17.60;;;;;;;26.21;71.38;99984.19;1802059;79;21358;-60
2021/07/19 05:11:19;;;;;;;25.72;16.90;;;;;;;26.32;71.13;99977.98;1791663;79;21182;-57
2021/07/19 05:14:27;;;;;;;26.33;17.17;;;;;;;26.44;70.78;99984.92;1795673;79;21205;-58
2021/07/19 05:17:32;;;;;;;24.90;17.55;;;;;;;26.56;70.42;99980.34;1802244;79;21186;-62
2021/07/19 05:20:41;;;;;;;25.68;17.82;;;;;;;26.65;70.25;99985.67;1802368;79;21970;-63
2021/07/19 05:23:49;;;;;;;28.02;18.73;;;;;;;26.73;69.79;99978.05;1794005;79;21390;-60
2021/07/19 05:26:55;;;;;;;23.92;18.10;;;;;;;26.81;69.86;99988.66;1793741;79;22144;-61
2021/07/19 05:30:02;;;;;;;23.67;16.27;;;;;;;26.90;69.31;99976.22;1801140;79;21359;-62
2021/07/19 05:33:09;;;;;;;24.70;17.80;;;;;;;26.99;69.07;99973.08;1801526;79;21224;-62
2021/07/19 05:36:17;;;;;;;28.07;17.73;;;;;;;27.10;69.09;99976.08;1802086;79;21332;-61
2021/07/19 05:39:21;;;;;;;22.48;16.60;;;;;;;27.19;68.77;99983.59;1794941;79;21430;-62
2021/07/19 05:42:29;;;;;;;28.55;17.20;;;;;;;27.28;68.40;99983.25;1801205;79;21699;-60
2021/07/19 05:45:37;;;;;;;25.37;17.37;;;;;;;27.39;68.13;99989.61;1800941;79;21320;-60
2021/07/19 05:48:43;;;;;;;23.42;17.12;;;;;;;27.47;67.91;99984.19;1801554;79;21272;-61
2021/07/19 05:51:49;;;;;;;27.20;18.30;;;;;;;27.54;67.21;99983.26;1793622;79;21374;-61
2021/07/19 05:54:56;;;;;;;22.87;16.67;;;;;;;27.63;66.61;99989.09;1771598;78;21685;-60
2021/07/19 05:58:05;;;;;;;23.75;16.90;;;;;;;27.70;66.40;99987.59;1765942;78;21267;-63
2021/07/19 06:01:12;;;;;;;26.95;17.70;;;;;;;27.80;66.02;99985.24;1761470;79;21187;-60
2021/07/19 06:04:18;;;;;;;22.85;16.82;;;;;;;27.88;65.69;99983.22;1777766;79;21256;-62
2021/07/19 06:07:24;;;;;;;21.27;17.42;;;;;;;27.95;65.61;99980.05;1812992;77;21189;-61
2021/07/19 06:10:31;;;;;;;21.62;16.23;;;;;;;28.06;65.15;99985.83;1781825;79;21213;-61
2021/07/19 06:13:40;;;;;;;20.72;16.57;;;;;;;28.15;64.95;99984.02;1785491;79;21786;-60
2021/07/19 06:16:50;;;;;;;22.87;16.35;;;;;;;28.24;65.22;99981.64;1778414;79;21192;-61
2021/07/19 06:19:54;;;;;;;22.00;15.58;;;;;;;28.36;65.10;99978.39;1778090;79;21218;-64
2021/07/19 06:23:01;;;;;;;21.27;15.98;;;;;;;28.46;64.15;99976.86;1801025;79;21189;-62
2021/07/19 06:26:07;;;;;;;22.93;15.90;;;;;;;28.53;63.97;99975.92;1777337;79;21650;-62
2021/07/19 06:29:12;;;;;;;21.45;15.78;;;;;;;28.64;63.63;99974.64;1779359;79;21250;-62
2021/07/19 06:32:20;;;;;;;19.40;15.78;;;;;;;28.76;63.07;99976.45;1788126;79;21197;-61
2021/07/19 06:35:25;;;;;;;21.87;16.62;;;;;;;28.83;62.43;99971.25;1782131;79;21268;-62
2021/07/19 06:38:31;;;;;;;22.73;15.65;;;;;;;28.91;62.32;99970.55;1783082;79;21194;-62
2021/07/19 06:41:37;;;;;;;17.95;15.40;;;;;;;29.01;62.14;99964.77;1792615;79;21332;-62
2021/07/19 06:44:43;;;;;;;21.27;14.33;;;;;;;29.12;61.58;99962.08;1790371;79;21182;-65
2021/07/19 06:47:48;;;;;;;22.67;14.20;;;;;;;29.21;60.79;99964.45;1781270;79;21730;-61
2021/07/19 06:50:55;;;;;;;17.30;13.25;;;;;;;29.32;60.63;99965.95;1775307;79;21339;-62
2021/07/19 06:54:00;;;;;;;18.15;13.32;;;;;;;29.43;59.17;99962.39;1772098;79;21252;-61
2021/07/19 06:57:07;;;;;;;20.77;14.90;;;;;;;29.52;58.38;99960.52;1761959;79;21219;-60
2021/07/19 07:00:14;;;;;;;19.70;14.90;;;;;;;29.61;57.76;99954.41;1760313;80;21180;-62
2021/07/19 07:03:20;;;;;;;18.90;14.68;;;;;;;29.70;57.29;99956.83;1784877;79;21409;-62
2021/07/19 07:06:28;;;;;;;20.55;13.38;;;;;;;29.77;56.48;99962.32;1776376;79;21201;-62
2021/07/19 07:09:34;;;;;;;16.40;13.03;;;;;;;29.86;56.57;99956.20;1787049;79;21566;-62
2021/07/19 07:12:43;;;;;;;16.07;12.88;;;;;;;29.95;55.54;99950.11;1801808;79;21905;-62
2021/07/19 07:15:49;;;;;;;13.93;12.43;;;;;;;30.05;55.09;99949.88;1773641;79;21202;-63
2021/07/19 07:18:56;;;;;;;13.03;11.12;;;;;;;30.21;53.85;99953.24;1796970;79;21339;-63
2021/07/19 07:22:02;;;;;;;18.02;11.50;;;;;;;30.21;53.85;99953.24;1776835;79;21213;-63
2021/07/19 07:25:07;;;;;;;12.63;11.12;;;;;;;30.36;50.89;99953.77;1770577;79;21177;-60
2021/07/19 07:28:14;;;;;;;18.40;12.65;;;;;;;30.38;51.63;99952.86;1779978;79;21161;-61
2021/07/19 07:31:26;;;;;;;15.45;11.55;;;;;;;30.38;51.63;99952.86;1776069;79;21742;-62
2021/07/19 07:34:30;;;;;;;14.68;12.23;;;;;;;30.46;51.32;99955.53;1770781;81;21280;-63
2021/07/19 07:37:37;;;;;;;14.85;13.20;;;;;;;30.51;50.86;99950.59;1785407;79;21836;-60
2021/07/19 07:40:48;;;;;;;13.32;11.60;;;;;;;30.60;52.06;99952.09;1770795;80;21209;-62
2021/07/19 07:43:57;;;;;;;15.08;12.03;;;;;;;30.66;50.79;99946.58;1786825;79;21757;-63
2021/07/19 07:47:04;;;;;;;14.35;11.75;;;;;;;30.72;50.58;99955.76;1770255;81;21184;-61
2021/07/19 07:50:09;;;;;;;15.18;11.95;;;;;;;30.79;51.02;99954.78;1770469;81;21894;-60
2021/07/19 07:53:15;;;;;;;16.73;12.35;;;;;;;30.85;50.53;99952.09;1770202;81;21994;-61
2021/07/19 07:56:21;;;;;;;20.05;12.20;;;;;;;30.86;50.49;99949.54;1770162;81;21176;-60
2021/07/19 07:59:27;;;;;;;16.40;12.63;;;;;;;30.81;51.07;99962.37;1770311;81;21319;-61
2021/07/19 08:02:32;;;;;;;16.23;12.75;;;;;;;30.77;51.36;99954.27;1773327;79;21268;-61
2021/07/19 08:05:40;;;;;;;21.37;11.80;;;;;;;30.72;51.22;99952.93;1802134;79;21303;-59
2021/07/19 08:08:47;;;;;;;18.05;11.38;;;;;;;30.69;51.10;99950.17;1802422;79;21722;-60
2021/07/19 08:11:56;;;;;;;15.48;10.90;;;;;;;30.77;50.70;99947.19;1801439;79;21271;-59
2021/07/19 08:15:06;;;;;;;14.43;11.80;;;;;;;30.87;50.36;99954.87;1776669;79;21189;-59
2021/07/19 08:18:13;;;;;;;14.63;10.95;;;;;;;30.97;49.68;99946.72;1770690;81;21376;-62
2021/07/19 08:21:21;;;;;;;16.02;10.48;;;;;;;31.09;48.78;99946.97;1770705;81;21189;-59
2021/07/19 08:24:27;;;;;;;14.33;10.60;;;;;;;31.19;48.45;99943.29;1784310;79;21209;-60
2021/07/19 08:27:36;;;;;;;12.60;10.13;;;;;;;31.30;48.59;99940.48;1794540;79;21414;-61
2021/07/19 08:30:42;;;;;;;15.72;10.25;;;;;;;31.42;47.84;99945.56;1782901;79;21217;-60
2021/07/19 08:33:50;;;;;;;11.68;9.93;;;;;;;31.50;47.52;99940.53;1775019;79;21252;-60
2021/07/19 08:36:55;;;;;;;12.95;10.03;;;;;;;31.60;46.81;99938.25;1770359;80;21725;-62
2021/07/19 08:40:06;;;;;;;15.15;10.30;;;;;;;31.70;46.73;99938.55;1765874;79;21224;-61
2021/07/19 08:43:11;;;;;;;11.43;10.30;;;;;;;31.79;46.17;99940.26;1776758;79;21609;-59
2021/07/19 08:46:16;;;;;;;14.60;10.30;;;;;;;31.85;46.10;99933.92;1770344;79;21412;-59
2021/07/19 08:49:23;;;;;;;13.32;9.58;;;;;;;31.93;46.28;99926.04;1802083;79;21236;-59
2021/07/19 08:52:31;;;;;;;13.13;9.25;;;;;;;32.09;45.36;99928.68;1798649;79;21177;-61
2021/07/19 08:55:36;;;;;;;15.85;9.43;;;;;;;32.22;45.00;99921.22;1770545;80;21828;-63
2021/07/19 08:58:42;;;;;;;10.75;9.38;;;;;;;32.33;44.54;99916.33;1770528;80;21212;-64
2021/07/19 09:01:54;;;;;;;10.55;9.05;;;;;;;32.43;43.81;99912.38;1777924;79;21189;-61
2021/07/19 09:05:00;;;;;;;10.82;9.48;;;;;;;32.49;44.05;99911.86;1777368;79;21201;-67
2021/07/19 09:08:05;;;;;;;18.23;11.80;;;;;;;32.59;43.86;99907.30;1769780;80;21718;-61
2021/07/19 09:11:16;;;;;;;13.85;9.78;;;;;;;32.61;44.21;99910.64;1770739;79;21267;-62
2021/07/19 09:14:21;;;;;;;15.72;9.85;;;;;;;32.69;44.44;99912.64;1776516;79;21197;-62
2021/07/19 09:17:32;;;;;;;14.70;9.45;;;;;;;32.80;44.59;99906.89;1778877;79;21197;-62
2021/07/19 09:20:40;;;;;;;11.90;9.53;;;;;;;32.94;44.27;99904.74;1783180;79;21819;-64
2021/07/19 09:23:47;;;;;;;13.00;10.05;;;;;;;33.04;43.95;99904.41;1776171;79;21166;-62
2021/07/19 09:26:55;;;;;;;11.65;9.33;;;;;;;33.08;43.05;99908.23;1768748;80;21699;-62
2021/07/19 09:30:05;;;;;;;12.18;9.78;;;;;;;33.13;43.19;99899.55;1768910;80;21188;-62
2021/07/19 09:33:24;;;;;;;13.93;9.05;;;;;;;33.21;43.00;99898.70;1761693;80;21187;-64
2021/07/19 09:36:31;;;;;;;11.18;9.58;;;;;;;33.26;41.73;99901.36;1771417;80;21218;-65
2021/07/19 09:39:42;;;;;;;12.50;9.45;;;;;;;33.31;41.35;99906.87;1771990;80;21349;-61
2021/07/19 09:42:52;;;;;;;13.18;9.30;;;;;;;33.45;41.56;99898.17;1772266;80;21218;-65
2021/07/19 09:46:11;;;;;;;13.32;9.58;;;;;;;33.60;41.28;99903.31;1773257;79;21201;-63
2021/07/19 09:49:17;;;;;;;13.08;9.48;;;;;;;33.68;41.35;99894.50;1772642;80;21229;-62
2021/07/19 09:52:23;;;;;;;14.63;8.78;;;;;;;33.78;42.01;99896.37;1772355;80;21355;-63
2021/07/19 09:55:34;;;;;;;16.30;9.73;;;;;;;33.91;41.03;99895.34;1785283;79;21900;-62
2021/07/19 09:58:39;;;;;;;14.50;9.20;;;;;;;34.03;41.04;99897.47;1804161;79;21351;-64
2021/07/19 10:01:54;;;;;;;13.45;10.18;;;;;;;34.10;40.93;99892.05;1804132;79;21801;-66
2021/07/19 10:05:00;;;;;;;11.33;9.60;;;;;;;34.09;41.17;99885.56;1762623;80;21880;-63
2021/07/19 10:08:08;;;;;;;11.83;9.90;;;;;;;34.11;40.75;99880.95;1763197;80;21348;-67
2021/07/19 10:11:25;;;;;;;13.65;9.58;;;;;;;34.08;40.91;99876.77;1759504;81;21319;-67
2021/07/19 10:14:39;;;;;;;12.43;9.80;;;;;;;34.07;40.40;99876.54;1751347;81;21358;-66
2021/07/19 10:17:45;;;;;;;11.15;9.15;;;;;;;34.06;39.73;99870.59;1748734;81;21359;-67
2021/07/19 10:20:54;;;;;;;10.68;9.35;;;;;;;34.02;40.25;99861.68;1740314;82;21382;-66
2021/07/19 10:24:00;;;;;;;13.38;9.43;;;;;;;33.90;40.23;99854.49;1736687;82;21264;-68
2021/07/19 10:27:08;;;;;;;13.03;9.03;;;;;;;33.77;40.70;99854.11;1738431;82;21213;-65
2021/07/19 10:30:17;;;;;;;12.85;10.13;;;;;;;33.63;40.96;99862.88;1755123;81;21197;-67
2021/07/19 10:33:21;;;;;;;12.10;9.33;;;;;;;33.43;40.91;99868.47;1769735;81;21200;-67
2021/07/19 10:36:42;;;;;;;15.25;9.38;;;;;;;33.30;40.96;99858.34;1737065;81;21248;-61
2021/07/19 10:39:50;;;;;;;17.27;9.58;;;;;;;33.23;41.77;99862.89;1729335;83;21347;-61
2021/07/19 10:42:55;;;;;;;13.75;9.73;;;;;;;33.13;41.46;99860.39;1763407;81;21362;-61
2021/07/19 10:46:01;;;;;;;13.32;9.78;;;;;;;33.05;42.20;99853.58;1745989;81;21407;-62
2021/07/19 10:49:20;;;;;;;13.10;9.98;;;;;;;32.99;42.23;99851.25;1756429;79;21820;-62
2021/07/19 10:52:27;;;;;;;17.73;10.18;;;;;;;32.93;41.92;99854.02;1743218;81;21374;-62
2021/07/19 10:55:39;;;;;;;12.47;9.80;;;;;;;32.87;42.48;99848.25;1707806;82;21203;-62
2021/07/19 10:58:54;;;;;;;13.85;9.23;;;;;;;32.99;42.32;99842.74;1741194;82;21870;-63
2021/07/19 11:02:03;;;;;;;11.33;8.80;;;;;;;33.26;42.88;99841.77;1741582;82;21711;-64
2021/07/19 11:05:11;;;;;;;13.13;8.83;;;;;;;33.58;42.07;99836.08;1735973;81;21231;-62
2021/07/19 11:08:30;;;;;;;10.95;9.75;;;;;;;33.82;41.16;99838.30;1735978;82;21831;-64
2021/07/19 11:11:42;;;;;;;11.15;9.15;;;;;;;34.02;40.24;99833.27;1736184;82;21257;-63
2021/07/19 11:14:59;;;;;;;16.30;9.20;;;;;;;34.25;40.60;99830.37;1735750;82;21231;-62
2021/07/19 11:18:05;;;;;;;11.18;9.23;;;;;;;34.48;40.55;99833.13;1735275;82;21266;-64
2021/07/19 11:21:11;;;;;;;19.30;9.18;;;;;;;34.72;39.94;99825.56;1722921;83;21201;-63
2021/07/19 11:24:24;;;;;;;14.25;9.60;;;;;;;34.90;39.79;99830.53;1729449;81;21257;-63
2021/07/19 11:27:43;;;;;;;15.65;8.70;;;;;;;35.05;38.10;99831.27;1732478;82;21219;-64
2021/07/19 11:30:49;;;;;;;10.63;8.65;;;;;;;35.18;37.55;99844.95;1736582;82;21712;-62
2021/07/19 11:34:00;;;;;;;10.95;8.15;;;;;;;35.25;36.19;99843.18;1713113;82;21212;-64
2021/07/19 11:37:06;;;;;;;9.75;7.85;;;;;;;35.30;35.70;99835.03;1708960;82;21346;-62
2021/07/19 11:40:15;;;;;;;11.00;7.95;;;;;;;35.32;35.51;99829.20;1706975;84;21389;-63
2021/07/19 11:43:29;;;;;;;11.57;7.95;;;;;;;35.40;35.57;99834.01;1707251;84;21232;-63
2021/07/19 11:46:46;;;;;;;12.75;8.20;;;;;;;35.50;35.37;99829.87;1707433;84;21405;-63
2021/07/19 11:49:54;;;;;;;12.45;8.08;;;;;;;35.63;35.43;99830.93;1706965;84;21659;-63
2021/07/19 11:53:02;;;;;;;10.98;7.72;;;;;;;35.73;34.61;99829.62;1707358;84;21211;-62
2021/07/19 11:56:12;;;;;;;13.60;7.70;;;;;;;35.82;34.73;99833.22;1707562;84;21216;-64
2021/07/19 11:59:17;;;;;;;10.63;8.08;;;;;;;35.91;34.48;99836.80;1707288;83;21389;-62
2021/07/19 12:02:34;;;;;;;11.08;7.85;;;;;;;35.89;34.17;99834.30;1707551;84;21705;-63
2021/07/19 12:05:41;;;;;;;9.30;7.10;;;;;;;35.90;33.87;99829.45;1707524;81;21375;-63
2021/07/19 12:08:46;;;;;;;10.65;7.53;;;;;;;35.90;34.23;99823.13;1707920;83;21248;-63
2021/07/19 12:12:02;;;;;;;11.48;8.65;;;;;;;35.94;33.91;99824.09;1701679;83;21245;-61
2021/07/19 12:15:10;;;;;;;9.40;8.48;;;;;;;35.96;34.68;99818.87;1705355;82;21221;-61
2021/07/19 12:18:15;;;;;;;10.70;8.10;;;;;;;35.87;34.52;99816.72;1707321;83;21391;-61
2021/07/19 12:21:30;;;;;;;13.28;9.18;;;;;;;35.75;34.49;99813.02;1706889;83;21627;-63
2021/07/19 12:24:37;;;;;;;14.47;8.40;;;;;;;35.67;35.51;99823.36;1722402;82;21754;-60
2021/07/19 12:27:44;;;;;;;13.08;8.68;;;;;;;35.56;35.54;99810.77;1730104;83;21471;-62
2021/07/19 12:30:54;;;;;;;12.98;8.55;;;;;;;35.48;35.38;99815.14;1736127;81;21860;-62
2021/07/19 12:34:00;;;;;;;11.28;8.78;;;;;;;35.41;35.30;99810.64;1736411;82;21314;-61
2021/07/19 12:37:11;;;;;;;12.53;8.25;;;;;;;35.39;35.10;99811.58;1735441;82;21753;-62
2021/07/19 12:40:18;;;;;;;11.22;7.95;;;;;;;35.44;35.18;99811.35;1736299;82;21380;-63
2021/07/19 12:43:26;;;;;;;11.25;8.13;;;;;;;35.51;34.87;99819.55;1731156;82;21240;-63
2021/07/19 12:46:31;;;;;;;10.18;7.90;;;;;;;35.59;34.75;99817.17;1736672;82;21245;-60
2021/07/19 12:49:46;;;;;;;14.65;7.95;;;;;;;35.60;34.76;99815.98;1770080;80;21374;-62
2021/07/19 12:52:54;;;;;;;11.40;8.00;;;;;;;35.59;35.57;99817.17;1762683;80;21261;-63
2021/07/19 12:56:02;;;;;;;12.28;8.78;;;;;;;35.62;35.02;99815.04;1759122;80;21704;-62
2021/07/19 12:59:09;;;;;;;13.58;8.65;;;;;;;35.57;34.87;99815.27;1770913;80;21229;-62
2021/07/19 13:02:14;;;;;;;11.12;7.85;;;;;;;35.55;35.09;99806.23;1770358;81;21216;-62
2021/07/19 13:05:24;;;;;;;9.90;7.35;;;;;;;35.51;35.80;99808.15;1760548;81;21224;-62
2021/07/19 13:08:40;;;;;;;;;;;;;;;35.46;35.84;99809.80;1737526;82;21240;-62
2021/07/19 13:11:49;;;;;;;11.53;7.80;;;;;;;35.44;35.98;99809.31;1735281;82;20194;-61
2021/07/19 13:14:55;;;;;;;13.70;8.00;;;;;;;35.33;35.65;99815.20;1736155;82;21523;-62
2021/07/19 13:18:15;;;;;;;12.33;8.23;;;;;;;35.17;35.93;99813.41;1735685;82;21768;-60
2021/07/19 13:21:20;;;;;;;12.10;8.45;;;;;;;35.07;36.88;99814.69;1734360;82;21196;-60
2021/07/19 13:24:26;;;;;;;12.45;8.18;;;;;;;34.92;37.49;99813.10;1728050;82;21334;-61
2021/07/19 13:27:34;;;;;;;16.02;8.45;;;;;;;34.79;37.62;99808.74;1735265;82;21219;-63
2021/07/19 13:30:39;;;;;;;13.48;8.68;;;;;;;34.71;38.13;99798.89;1729342;82;21194;-61
2021/07/19 13:33:51;;;;;;;11.97;8.55;;;;;;;34.61;37.84;99795.89;1729021;83;21222;-62
2021/07/19 13:36:59;;;;;;;12.50;8.18;;;;;;;34.44;38.09;99793.17;1665467;84;21243;-61
2021/07/19 13:40:25;;;;;;;13.40;9.00;;;;;;;34.26;38.28;99794.48;1714877;81;21762;-62
2021/07/19 13:43:30;;;;;;;16.27;8.95;;;;;;;34.13;38.91;99805.53;1709477;83;21247;-59
2021/07/19 13:46:36;;;;;;;14.50;8.88;;;;;;;33.99;39.55;99806.39;1725830;82;21699;-62
2021/07/19 13:49:44;;;;;;;14.35;9.20;;;;;;;33.84;40.29;99806.12;1734492;82;21244;-61
2021/07/19 13:52:50;;;;;;;18.82;9.88;;;;;;;33.76;41.07;99815.53;1707008;84;21255;-63
2021/07/19 13:56:07;;;;;;;17.90;9.45;;;;;;;33.62;42.11;99826.30;1707461;84;21374;-62
2021/07/19 13:59:18;;;;;;;19.95;9.83;;;;;;;33.41;43.06;99829.06;1719049;82;21226;-60
2021/07/19 14:02:25;;;;;;;18.17;10.35;;;;;;;33.14;45.54;99840.80;1733494;82;21267;-62
2021/07/19 14:05:30;;;;;;;14.90;10.20;;;;;;;32.65;48.90;99848.44;1735776;82;21211;-61
2021/07/19 14:08:36;;;;;;;17.50;10.43;;;;;;;32.03;50.01;99846.44;1747056;81;21283;-60
2021/07/19 14:11:41;;;;;;;15.83;11.15;;;;;;;31.59;51.49;99846.58;1748738;80;21398;-60
2021/07/19 14:14:50;;;;;;;13.28;10.15;;;;;;;31.27;52.05;99835.61;1741260;82;21406;-59
2021/07/19 14:17:56;;;;;;;16.57;10.05;;;;;;;31.04;53.22;99843.86;1740908;82;21753;-59
2021/07/19 14:21:01;;;;;;;17.35;10.82;;;;;;;30.83;50.60;99839.33;1741844;82;21210;-57
2021/07/19 14:24:07;;;;;;;15.13;9.38;;;;;;;30.71;53.34;99851.77;1766927;81;21354;-59
2021/07/19 14:27:13;;;;;;;12.93;8.73;;;;;;;30.49;53.54;99853.98;1771607;81;21185;-62